sensor_id;sensor_type;location;lat;lon;timestamp;pressure;altitude;pressure_sealevel;temperature;humidity
28181;BME280;15464;50.988;10.318;2023-02-16T00:00:41;99939.03;;;-0.08;100.00
28181;BME280;15464;50.988;10.318;2023-02-16T00:03:20;99939.91;;;-0.08;100.00
28181;BME280;15464;50.988;10.318;2023-02-16T00:05:48;99943.38;;;-0.09;100.00
28181;BME280;15464;50.988;10.318;2023-02-16T00:08:15;99932.88;;;-0.06;100.00
28181;BME280;15464;50.988;10.318;2023-02-16T00:10:42;99944.09;;;-0.02;99.65
28181;BME280;15464;50.988;10.318;2023-02-16T00:13:29;99944.94;;;-0.02;100.00
28181;BME280;15464;50.988;10.318;2023-02-16T00:16:22;99934.50;;;-0.02;100.00
28181;BME280;15464;50.988;10.318;2023-02-16T00:18:49;99934.50;;;-0.02;100.00
28181;BME280;15464;50.988;10.318;2023-02-16T00:21:17;99927.59;;;-0.03;99.59
28181;BME280;15464;50.988;10.318;2023-02-16T00:23:47;99925.69;;;0.03;98.97
28181;BME280;15464;50.988;10.318;2023-02-16T00:26:19;99926.72;;;-0.03;99.45
28181;BME280;15464;50.988;10.318;2023-02-16T00:28:51;99931.00;;;-0.01;100.00
28181;BME280;15464;50.988;10.318;2023-02-16T00:31:21;99937.91;;;0.00;100.00
28181;BME280;15464;50.988;10.318;2023-02-16T00:33:48;99924.16;;;-0.05;100.00
28181;BME280;15464;50.988;10.318;2023-02-16T00:36:15;99921.53;;;-0.05;100.00
28181;BME280;15464;50.988;10.318;2023-02-16T00:38:42;99921.63;;;-0.08;100.00
28181;BME280;15464;50.988;10.318;2023-02-16T00:41:17;99916.47;;;-0.09;100.00
28181;BME280;15464;50.988;10.318;2023-02-16T00:44:19;99919.09;;;-0.11;100.00
28181;BME280;15464;50.988;10.318;2023-02-16T00:46:46;99914.72;;;-0.09;100.00
28181;BME280;15464;50.988;10.318;2023-02-16T00:49:20;99918.19;;;-0.08;100.00
28181;BME280;15464;50.988;10.318;2023-02-16T00:51:48;99923.28;;;-0.05;100.00
28181;BME280;15464;50.988;10.318;2023-02-16T00:54:15;99931.19;;;-0.07;100.00
28181;BME280;15464;50.988;10.318;2023-02-16T00:56:41;99930.09;;;0.00;100.00
28181;BME280;15464;50.988;10.318;2023-02-16T00:59:15;99929.28;;;-0.02;100.00
28181;BME280;15464;50.988;10.318;2023-02-16T01:01:42;99930.94;;;0.01;100.00
28181;BME280;15464;50.988;10.318;2023-02-16T01:04:16;99929.25;;;0.00;100.00
28181;BME280;15464;50.988;10.318;2023-02-16T01:06:43;99930.00;;;0.05;100.00
28181;BME280;15464;50.988;10.318;2023-02-16T01:09:29;99928.28;;;0.04;100.00
28181;BME280;15464;50.988;10.318;2023-02-16T01:12:17;99929.28;;;-0.02;100.00
28181;BME280;15464;50.988;10.318;2023-02-16T01:14:46;99928.44;;;-0.02;100.00
28181;BME280;15464;50.988;10.318;2023-02-16T01:17:15;99922.25;;;0.00;100.00
28181;BME280;15464;50.988;10.318;2023-02-16T01:19:42;99931.81;;;0.02;100.00
28181;BME280;15464;50.988;10.318;2023-02-16T01:22:09;99924.09;;;-0.02;100.00
28181;BME280;15464;50.988;10.318;2023-02-16T01:24:35;99917.19;;;-0.04;100.00
28181;BME280;15464;50.988;10.318;2023-02-16T01:27:02;99918.94;;;-0.05;100.00
28181;BME280;15464;50.988;10.318;2023-02-16T01:29:29;99922.44;;;-0.06;100.00
28181;BME280;15464;50.988;10.318;2023-02-16T01:31:56;99929.28;;;-0.02;100.00
28181;BME280;15464;50.988;10.318;2023-02-16T01:34:23;99930.19;;;-0.03;100.00
28181;BME280;15464;50.988;10.318;2023-02-16T01:36:50;99925.00;;;-0.04;100.00
28181;BME280;15464;50.988;10.318;2023-02-16T01:39:19;99927.59;;;-0.03;100.00
28181;BME280;15464;50.988;10.318;2023-02-16T01:49:49;99914.53;;;-0.03;100.00
28181;BME280;15464;50.988;10.318;2023-02-16T01:52:32;99909.22;;;0.00;100.00
28181;BME280;15464;50.988;10.318;2023-02-16T01:57:45;99913.66;;;-0.02;100.00
28181;BME280;15464;50.988;10.318;2023-02-16T02:00:20;99916.28;;;-0.03;100.00
28181;BME280;15464;50.988;10.318;2023-02-16T02:02:54;99906.72;;;-0.03;100.00
28181;BME280;15464;50.988;10.318;2023-02-16T02:05:41;99896.28;;;-0.03;100.00
28181;BME280;15464;50.988;10.318;2023-02-16T02:11:13;99891.06;;;-0.03;100.00
28181;BME280;15464;50.988;10.318;2023-02-16T02:16:27;99894.69;;;-0.07;100.00
28181;BME280;15464;50.988;10.318;2023-02-16T02:18:54;99891.16;;;-0.06;100.00
28181;BME280;15464;50.988;10.318;2023-02-16T02:21:55;99902.38;;;-0.02;100.00
28181;BME280;15464;50.988;10.318;2023-02-16T02:28:29;99895.66;;;-0.12;100.00
28181;BME280;15464;50.988;10.318;2023-02-16T02:31:31;99880.88;;;-0.12;100.00
28181;BME280;15464;50.988;10.318;2023-02-16T02:34:16;99883.63;;;-0.16;100.00
28181;BME280;15464;50.988;10.318;2023-02-16T02:39:40;99866.41;;;-0.22;100.00
28181;BME280;15464;50.988;10.318;2023-02-16T02:42:29;99859.78;;;-0.35;100.00
28181;BME280;15464;50.988;10.318;2023-02-16T02:45:13;99866.00;;;-0.39;100.00
28181;BME280;15464;50.988;10.318;2023-02-16T02:47:46;99866.22;;;-0.48;100.00
28181;BME280;15464;50.988;10.318;2023-02-16T02:50:39;99871.41;;;-0.47;100.00
28181;BME280;15464;50.988;10.318;2023-02-16T02:53:29;99874.94;;;-0.49;100.00
28181;BME280;15464;50.988;10.318;2023-02-16T02:55:58;99878.69;;;-0.59;100.00
28181;BME280;15464;50.988;10.318;2023-02-16T02:58:47;99874.31;;;-0.59;100.00
28181;BME280;15464;50.988;10.318;2023-02-16T03:01:35;99862.13;;;-0.57;100.00
28181;BME280;15464;50.988;10.318;2023-02-16T03:04:03;99869.03;;;-0.56;100.00
28181;BME280;15464;50.988;10.318;2023-02-16T03:06:37;99865.38;;;-0.49;100.00
28181;BME280;15464;50.988;10.318;2023-02-16T03:09:09;99862.66;;;-0.44;100.00
28181;BME280;15464;50.988;10.318;2023-02-16T03:11:37;99869.56;;;-0.43;100.00
28181;BME280;15464;50.988;10.318;2023-02-16T03:14:30;99863.56;;;-0.45;100.00
28181;BME280;15464;50.988;10.318;2023-02-16T03:17:01;99869.50;;;-0.40;100.00
28181;BME280;15464;50.988;10.318;2023-02-16T03:19:49;99874.72;;;-0.40;100.00
28181;BME280;15464;50.988;10.318;2023-02-16T03:22:35;99868.53;;;-0.37;100.00
28181;BME280;15464;50.988;10.318;2023-02-16T03:25:23;99869.56;;;-0.43;100.00
28181;BME280;15464;50.988;10.318;2023-02-16T03:28:10;99864.34;;;-0.43;100.00
28181;BME280;15464;50.988;10.318;2023-02-16T03:30:57;99863.63;;;-0.48;100.00
28181;BME280;15464;50.988;10.318;2023-02-16T03:33:27;99856.59;;;-0.45;100.00
28181;BME280;15464;50.988;10.318;2023-02-16T03:35:55;99865.09;;;-0.38;100.00
28181;BME280;15464;50.988;10.318;2023-02-16T03:38:23;99862.41;;;-0.35;100.00
28181;BME280;15464;50.988;10.318;2023-02-16T03:40:50;99853.69;;;-0.34;100.00
28181;BME280;15464;50.988;10.318;2023-02-16T03:43:17;99857.44;;;-0.44;100.00
28181;BME280;15464;50.988;10.318;2023-02-16T03:45:44;99865.34;;;-0.47;100.00
28181;BME280;15464;50.988;10.318;2023-02-16T03:48:12;99853.28;;;-0.51;100.00
28181;BME280;15464;50.988;10.318;2023-02-16T03:50:38;99845.47;;;-0.51;100.00
28181;BME280;15464;50.988;10.318;2023-02-16T03:53:05;99848.13;;;-0.53;100.00
28181;BME280;15464;50.988;10.318;2023-02-16T03:55:41;99839.56;;;-0.58;100.00
28181;BME280;15464;50.988;10.318;2023-02-16T03:58:10;99842.09;;;-0.56;100.00
28181;BME280;15464;50.988;10.318;2023-02-16T04:00:37;99839.44;;;-0.53;100.00
28181;BME280;15464;50.988;10.318;2023-02-16T04:03:05;99839.72;;;-0.64;100.00
28181;BME280;15464;50.988;10.318;2023-02-16T04:05:32;99842.44;;;-0.68;100.00
28181;BME280;15464;50.988;10.318;2023-02-16T04:07:59;99844.25;;;-0.70;100.00
28181;BME280;15464;50.988;10.318;2023-02-16T04:10:27;99844.25;;;-0.70;100.00
28181;BME280;15464;50.988;10.318;2023-02-16T04:12:53;99854.81;;;-0.76;100.00
28181;BME280;15464;50.988;10.318;2023-02-16T04:15:25;99852.25;;;-0.79;100.00
28181;BME280;15464;50.988;10.318;2023-02-16T04:17:52;99849.69;;;-0.81;100.00
28181;BME280;15464;50.988;10.318;2023-02-16T04:20:29;99854.88;;;-0.79;100.00
28181;BME280;15464;50.988;10.318;2023-02-16T04:22:56;99859.19;;;-0.78;100.00
28181;BME280;15464;50.988;10.318;2023-02-16T04:25:24;99847.31;;;-0.56;100.00
28181;BME280;15464;50.988;10.318;2023-02-16T04:27:51;99857.00;;;-0.61;100.00
28181;BME280;15464;50.988;10.318;2023-02-16T04:30:21;99856.91;;;-0.57;100.00
28181;BME280;15464;50.988;10.318;2023-02-16T04:32:49;99847.31;;;-0.56;100.00
28181;BME280;15464;50.988;10.318;2023-02-16T04:35:16;99853.22;;;-0.50;100.00
28181;BME280;15464;50.988;10.318;2023-02-16T04:37:43;99848.81;;;-0.46;100.00
28181;BME280;15464;50.988;10.318;2023-02-16T04:40:11;99852.25;;;-0.44;100.00
28181;BME280;15464;50.988;10.318;2023-02-16T04:42:42;99849.38;;;-0.35;100.00
28181;BME280;15464;50.988;10.318;2023-02-16T04:45:11;99847.50;;;-0.30;100.00
28181;BME280;15464;50.988;10.318;2023-02-16T04:47:38;99847.63;;;-0.34;100.00
28181;BME280;15464;50.988;10.318;2023-02-16T04:50:05;99847.69;;;-0.37;100.00
28181;BME280;15464;50.988;10.318;2023-02-16T04:52:32;99848.66;;;-0.40;100.00
28181;BME280;15464;50.988;10.318;2023-02-16T04:54:59;99846.97;;;-0.43;100.00
28181;BME280;15464;50.988;10.318;2023-02-16T04:57:26;99842.81;;;-0.50;100.00
28181;BME280;15464;50.988;10.318;2023-02-16T04:59:53;99856.78;;;-0.52;100.00
28181;BME280;15464;50.988;10.318;2023-02-16T05:02:20;99854.34;;;-0.58;100.00
28181;BME280;15464;50.988;10.318;2023-02-16T05:04:47;99857.69;;;-0.53;100.00
28181;BME280;15464;50.988;10.318;2023-02-16T05:07:14;99863.91;;;-0.59;100.00
28181;BME280;15464;50.988;10.318;2023-02-16T05:09:40;99861.50;;;-0.66;100.00
28181;BME280;15464;50.988;10.318;2023-02-16T05:12:08;99863.38;;;-0.73;100.00
28181;BME280;15464;50.988;10.318;2023-02-16T05:14:53;99864.22;;;-0.71;100.00
28181;BME280;15464;50.988;10.318;2023-02-16T05:17:22;99862.34;;;-0.66;100.00
28181;BME280;15464;50.988;10.318;2023-02-16T05:19:55;99872.84;;;-0.69;100.00
28181;BME280;15464;50.988;10.318;2023-02-16T05:22:22;99864.28;;;-0.74;100.00
28181;BME280;15464;50.988;10.318;2023-02-16T05:24:49;99862.69;;;-0.79;100.00
28181;BME280;15464;50.988;10.318;2023-02-16T05:27:22;99857.84;;;-0.59;100.00
28181;BME280;15464;50.988;10.318;2023-02-16T05:29:50;99862.28;;;-0.63;100.00
28181;BME280;15464;50.988;10.318;2023-02-16T05:32:17;99861.59;;;-0.69;100.00
28181;BME280;15464;50.988;10.318;2023-02-16T05:34:44;99863.41;;;-0.74;100.00
28181;BME280;15464;50.988;10.318;2023-02-16T05:37:15;99868.88;;;-0.84;100.00
28181;BME280;15464;50.988;10.318;2023-02-16T05:39:42;99868.88;;;-0.84;100.00
28181;BME280;15464;50.988;10.318;2023-02-16T05:42:09;99863.50;;;-0.77;100.00
28181;BME280;15464;50.988;10.318;2023-02-16T05:44:36;99859.94;;;-0.73;100.00
28181;BME280;15464;50.988;10.318;2023-02-16T05:47:03;99860.56;;;-0.64;100.00
28181;BME280;15464;50.988;10.318;2023-02-16T05:49:29;99847.47;;;-0.62;100.00
28181;BME280;15464;50.988;10.318;2023-02-16T05:51:56;99849.19;;;-0.61;100.00
28181;BME280;15464;50.988;10.318;2023-02-16T05:54:23;99849.16;;;-0.60;100.00
28181;BME280;15464;50.988;10.318;2023-02-16T05:56:51;99855.34;;;-0.64;100.00
28181;BME280;15464;50.988;10.318;2023-02-16T05:59:18;99852.78;;;-0.65;100.00
28181;BME280;15464;50.988;10.318;2023-02-16T06:01:45;99842.28;;;-0.62;100.00
28181;BME280;15464;50.988;10.318;2023-02-16T06:04:17;99842.09;;;-0.56;100.00
28181;BME280;15464;50.988;10.318;2023-02-16T06:06:45;99843.75;;;-0.52;100.00
28181;BME280;15464;50.988;10.318;2023-02-16T06:09:11;99843.66;;;-0.49;100.00
28181;BME280;15464;50.988;10.318;2023-02-16T06:11:38;99847.91;;;-0.45;100.00
28181;BME280;15464;50.988;10.318;2023-02-16T06:14:11;99846.91;;;-0.39;100.00
28181;BME280;15464;50.988;10.318;2023-02-16T06:16:40;99857.28;;;-0.38;100.00
28181;BME280;15464;50.988;10.318;2023-02-16T06:19:07;99851.13;;;-0.35;100.00
28181;BME280;15464;50.988;10.318;2023-02-16T06:21:34;99851.91;;;-0.32;100.00
28181;BME280;15464;50.988;10.318;2023-02-16T06:24:02;99848.56;;;-0.37;100.00
28181;BME280;15464;50.988;10.318;2023-02-16T06:26:29;99845.06;;;-0.36;100.00
28181;BME280;15464;50.988;10.318;2023-02-16T06:28:56;99851.13;;;-0.35;100.00
28181;BME280;15464;50.988;10.318;2023-02-16T06:31:23;99851.00;;;-0.31;100.00
28181;BME280;15464;50.988;10.318;2023-02-16T06:33:51;99837.13;;;-0.31;100.00
28181;BME280;15464;50.988;10.318;2023-02-16T06:36:18;99842.28;;;-0.30;100.00
28181;BME280;15464;50.988;10.318;2023-02-16T06:38:45;99841.50;;;-0.32;100.00
28181;BME280;15464;50.988;10.318;2023-02-16T06:41:12;99837.03;;;-0.28;100.00
28181;BME280;15464;50.988;10.318;2023-02-16T06:43:58;99843.00;;;-0.25;100.00
28181;BME280;15464;50.988;10.318;2023-02-16T06:46:26;99844.81;;;-0.27;100.00
28181;BME280;15464;50.988;10.318;2023-02-16T06:48:53;99845.56;;;-0.23;100.00
28181;BME280;15464;50.988;10.318;2023-02-16T06:51:19;99847.31;;;-0.24;100.00
28181;BME280;15464;50.988;10.318;2023-02-16T06:53:46;99849.94;;;-0.24;100.00
28181;BME280;15464;50.988;10.318;2023-02-16T06:56:13;99847.41;;;-0.25;100.00
28181;BME280;15464;50.988;10.318;2023-02-16T06:58:39;99836.69;;;-0.16;100.00
28181;BME280;15464;50.988;10.318;2023-02-16T07:01:07;99844.56;;;-0.18;100.00
28181;BME280;15464;50.988;10.318;2023-02-16T07:03:34;99841.94;;;-0.18;100.00
28181;BME280;15464;50.988;10.318;2023-02-16T07:06:01;99837.47;;;-0.13;100.00
28181;BME280;15464;50.988;10.318;2023-02-16T07:08:28;99849.69;;;-0.15;100.00
28181;BME280;15464;50.988;10.318;2023-02-16T07:10:54;99862.69;;;-0.13;100.00
28181;BME280;15464;50.988;10.318;2023-02-16T07:13:21;99868.66;;;-0.10;100.00
28181;BME280;15464;50.988;10.318;2023-02-16T07:15:48;99872.09;;;-0.08;100.00
28181;BME280;15464;50.988;10.318;2023-02-16T07:18:14;99873.75;;;-0.05;100.00
28181;BME280;15464;50.988;10.318;2023-02-16T07:20:41;99869.31;;;-0.02;100.00
28181;BME280;15464;50.988;10.318;2023-02-16T07:23:08;99888.38;;;0.00;100.00
28181;BME280;15464;50.988;10.318;2023-02-16T07:25:34;99864.81;;;0.04;100.00
28181;BME280;15464;50.988;10.318;2023-02-16T07:28:02;99869.88;;;0.10;100.00
28181;BME280;15464;50.988;10.318;2023-02-16T07:30:30;99879.44;;;0.09;100.00
28181;BME280;15464;50.988;10.318;2023-02-16T07:32:56;99878.50;;;0.12;100.00
28181;BME280;15464;50.988;10.318;2023-02-16T07:35:23;99887.13;;;0.14;100.00
28181;BME280;15464;50.988;10.318;2023-02-16T07:37:50;99873.91;;;0.20;100.00
28181;BME280;15464;50.988;10.318;2023-02-16T07:40:17;99881.75;;;0.20;100.00
28181;BME280;15464;50.988;10.318;2023-02-16T07:42:43;99895.59;;;0.22;100.00
28181;BME280;15464;50.988;10.318;2023-02-16T07:45:10;99882.50;;;0.25;100.00
28181;BME280;15464;50.988;10.318;2023-02-16T07:47:37;99890.19;;;0.29;100.00
28181;BME280;15464;50.988;10.318;2023-02-16T07:50:04;99885.00;;;0.28;100.00
28181;BME280;15464;50.988;10.318;2023-02-16T07:52:31;99884.75;;;0.37;100.00
28181;BME280;15464;50.988;10.318;2023-02-16T07:54:58;99893.38;;;0.39;100.00
28181;BME280;15464;50.988;10.318;2023-02-16T07:57:25;99883.78;;;0.39;100.00
28181;BME280;15464;50.988;10.318;2023-02-16T07:59:53;99882.00;;;0.42;100.00
28181;BME280;15464;50.988;10.318;2023-02-16T08:02:20;99875.81;;;0.44;100.00
28181;BME280;15464;50.988;10.318;2023-02-16T08:04:49;99879.09;;;0.51;100.00
28181;BME280;15464;50.988;10.318;2023-02-16T08:07:18;99887.72;;;0.54;100.00
28181;BME280;15464;50.988;10.318;2023-02-16T08:09:45;99879.72;;;0.59;100.00
28181;BME280;15464;50.988;10.318;2023-02-16T08:12:13;99885.63;;;0.65;100.00
28181;BME280;15464;50.988;10.318;2023-02-16T08:14:41;99881.22;;;0.67;100.00
28181;BME280;15464;50.988;10.318;2023-02-16T08:17:09;99882.97;;;0.67;100.00
28181;BME280;15464;50.988;10.318;2023-02-16T08:19:35;99887.19;;;0.71;100.00
28181;BME280;15464;50.988;10.318;2023-02-16T08:22:03;99891.56;;;0.70;100.00
28181;BME280;15464;50.988;10.318;2023-02-16T08:24:31;99888.75;;;0.76;100.00
28181;BME280;15464;50.988;10.318;2023-02-16T08:27:01;99888.56;;;0.82;100.00
28181;BME280;15464;50.988;10.318;2023-02-16T08:29:30;99887.28;;;0.96;99.08
28181;BME280;15464;50.988;10.318;2023-02-16T08:31:57;99884.69;;;0.96;99.35
28181;BME280;15464;50.988;10.318;2023-02-16T08:34:24;99881.16;;;0.97;99.22
28181;BME280;15464;50.988;10.318;2023-02-16T08:36:55;99885.50;;;0.98;98.64
28181;BME280;15464;50.988;10.318;2023-02-16T08:39:27;99884.47;;;1.02;98.83
28181;BME280;15464;50.988;10.318;2023-02-16T08:41:55;99882.56;;;1.07;98.20
28181;BME280;15464;50.988;10.318;2023-02-16T08:44:23;99882.28;;;1.16;97.22
28181;BME280;15464;50.988;10.318;2023-02-16T08:46:52;99887.47;;;1.17;97.32
28181;BME280;15464;50.988;10.318;2023-02-16T08:49:21;99893.44;;;1.21;97.77
28181;BME280;15464;50.988;10.318;2023-02-16T08:51:58;99890.09;;;1.17;97.71
28181;BME280;15464;50.988;10.318;2023-02-16T08:54:28;99898.47;;;1.27;97.62
28181;BME280;15464;50.988;10.318;2023-02-16T08:56:56;99899.28;;;1.29;97.26
28181;BME280;15464;50.988;10.318;2023-02-16T08:59:25;99900.81;;;1.36;97.14
28181;BME280;15464;50.988;10.318;2023-02-16T09:01:55;99897.88;;;1.45;96.55
28181;BME280;15464;50.988;10.318;2023-02-16T09:04:21;99891.75;;;1.46;96.78
28181;BME280;15464;50.988;10.318;2023-02-16T09:06:50;99894.91;;;1.56;95.58
28181;BME280;15464;50.988;10.318;2023-02-16T09:09:18;99899.94;;;1.62;95.43
28181;BME280;15464;50.988;10.318;2023-02-16T09:11:45;99889.41;;;1.63;95.15
28181;BME280;15464;50.988;10.318;2023-02-16T09:14:12;99896.47;;;1.61;94.84
28181;BME280;15464;50.988;10.318;2023-02-16T09:16:40;99896.25;;;1.68;95.22
28181;BME280;15464;50.988;10.318;2023-02-16T09:19:12;99892.31;;;1.81;95.02
28181;BME280;15464;50.988;10.318;2023-02-16T09:21:40;99883.63;;;1.80;94.38
28181;BME280;15464;50.988;10.318;2023-02-16T09:24:08;99882.81;;;1.78;94.41
28181;BME280;15464;50.988;10.318;2023-02-16T09:26:36;99886.88;;;1.87;94.46
28181;BME280;15464;50.988;10.318;2023-02-16T09:29:05;99888.56;;;1.88;93.83
28181;BME280;15464;50.988;10.318;2023-02-16T09:31:34;99888.25;;;1.97;93.69
28181;BME280;15464;50.988;10.318;2023-02-16T09:36:41;99895.06;;;2.01;93.10
28181;BME280;15464;50.988;10.318;2023-02-16T09:39:08;99895.72;;;2.08;93.22
28181;BME280;15464;50.988;10.318;2023-02-16T09:44:34;99889.97;;;1.98;92.52
28181;BME280;15464;50.988;10.318;2023-02-16T09:47:08;99887.00;;;2.07;92.88
28181;BME280;15464;50.988;10.318;2023-02-16T09:49:39;99886.72;;;2.15;92.24
28181;BME280;15464;50.988;10.318;2023-02-16T09:54:53;99889.97;;;2.21;91.46
28181;BME280;15464;50.988;10.318;2023-02-16T10:00:50;99890.97;;;2.42;91.27
28181;BME280;15464;50.988;10.318;2023-02-16T10:11:34;99885.44;;;2.50;90.42
28181;BME280;15464;50.988;10.318;2023-02-16T10:14:18;99890.59;;;2.51;90.27
28181;BME280;15464;50.988;10.318;2023-02-16T10:19:41;99883.31;;;2.59;89.72
28181;BME280;15464;50.988;10.318;2023-02-16T10:22:16;99884.91;;;2.87;87.91
28181;BME280;15464;50.988;10.318;2023-02-16T10:28:14;99885.53;;;2.70;88.84
28181;BME280;15464;50.988;10.318;2023-02-16T10:30:52;99880.06;;;2.76;88.09
28181;BME280;15464;50.988;10.318;2023-02-16T10:33:43;99881.72;;;2.78;88.32
28181;BME280;15464;50.988;10.318;2023-02-16T10:41:43;99873.22;;;2.72;88.54
28181;BME280;15464;50.988;10.318;2023-02-16T10:44:24;99876.66;;;2.74;88.44
28181;BME280;15464;50.988;10.318;2023-02-16T10:46:59;99874.72;;;2.79;87.53
28181;BME280;15464;50.988;10.318;2023-02-16T10:49:29;99870.47;;;2.98;87.81
28181;BME280;15464;50.988;10.318;2023-02-16T10:51:58;99867.22;;;2.92;86.91
28181;BME280;15464;50.988;10.318;2023-02-16T10:54:28;99869.09;;;2.88;87.52
28181;BME280;15464;50.988;10.318;2023-02-16T10:59:41;99867.78;;;3.00;86.88
28181;BME280;15464;50.988;10.318;2023-02-16T11:05:02;99850.00;;;3.06;87.27
28181;BME280;15464;50.988;10.318;2023-02-16T11:07:56;99847.16;;;3.12;86.30
28181;BME280;15464;50.988;10.318;2023-02-16T11:10:50;99847.75;;;3.19;86.54
28181;BME280;15464;50.988;10.318;2023-02-16T11:15:54;99831.75;;;3.47;85.26
28181;BME280;15464;50.988;10.318;2023-02-16T11:18:42;99836.72;;;3.53;85.37
28181;BME280;15464;50.988;10.318;2023-02-16T11:21:11;99839.88;;;3.61;83.94
28181;BME280;15464;50.988;10.318;2023-02-16T11:23:42;99837.31;;;3.80;84.23
28181;BME280;15464;50.988;10.318;2023-02-16T11:28:45;99829.91;;;4.08;83.24
28181;BME280;15464;50.988;10.318;2023-02-16T11:31:32;99826.25;;;4.12;81.52
28181;BME280;15464;50.988;10.318;2023-02-16T11:34:31;99836.28;;;4.02;81.00
28181;BME280;15464;50.988;10.318;2023-02-16T11:39:52;99824.84;;;4.24;81.34
28181;BME280;15464;50.988;10.318;2023-02-16T11:42:32;99831.09;;;4.40;81.33
28181;BME280;15464;50.988;10.318;2023-02-16T11:45:04;99823.56;;;4.51;80.23
28181;BME280;15464;50.988;10.318;2023-02-16T11:47:34;99827.03;;;4.52;80.51
28181;BME280;15464;50.988;10.318;2023-02-16T11:52:34;99823.81;;;4.82;79.58
28181;BME280;15464;50.988;10.318;2023-02-16T11:55:01;99818.00;;;4.76;80.39
28181;BME280;15464;50.988;10.318;2023-02-16T11:57:31;99815.03;;;4.65;79.40
28181;BME280;15464;50.988;10.318;2023-02-16T12:00:01;99815.88;;;4.65;79.76
28181;BME280;15464;50.988;10.318;2023-02-16T12:05:26;99803.97;;;4.58;80.57
28181;BME280;15464;50.988;10.318;2023-02-16T12:11:22;99799.72;;;4.56;80.94
28181;BME280;15464;50.988;10.318;2023-02-16T12:14:05;99796.03;;;4.41;80.20
28181;BME280;15464;50.988;10.318;2023-02-16T12:19:41;99791.59;;;4.79;79.08
28181;BME280;15464;50.988;10.318;2023-02-16T12:27:35;99773.19;;;4.96;77.70
28181;BME280;15464;50.988;10.318;2023-02-16T12:38:33;99765.34;;;5.48;78.36
28181;BME280;15464;50.988;10.318;2023-02-16T12:43:43;99768.13;;;5.78;77.55
28181;BME280;15464;50.988;10.318;2023-02-16T12:46:30;99765.97;;;5.86;76.37
28181;BME280;15464;50.988;10.318;2023-02-16T12:49:04;99756.13;;;5.89;77.51
28181;BME280;15464;50.988;10.318;2023-02-16T12:51:46;99769.16;;;5.92;75.32
28181;BME280;15464;50.988;10.318;2023-02-16T12:54:48;99759.09;;;6.16;75.81
28181;BME280;15464;50.988;10.318;2023-02-16T12:57:11;99761.78;;;5.99;75.59
28181;BME280;15464;50.988;10.318;2023-02-16T12:59:50;99765.97;;;5.68;75.50
28181;BME280;15464;50.988;10.318;2023-02-16T13:02:35;99768.09;;;5.62;76.28
28181;BME280;15464;50.988;10.318;2023-02-16T13:05:08;99770.28;;;5.54;76.28
28181;BME280;15464;50.988;10.318;2023-02-16T13:07:39;99774.84;;;5.33;76.41
28181;BME280;15464;50.988;10.318;2023-02-16T13:10:17;99770.44;;;5.34;76.32
28181;BME280;15464;50.988;10.318;2023-02-16T13:13:03;99775.41;;;5.22;76.86
28181;BME280;15464;50.988;10.318;2023-02-16T13:18:21;99776.88;;;5.11;77.28
28181;BME280;15464;50.988;10.318;2023-02-16T13:20:53;99770.81;;;5.26;77.16
28181;BME280;15464;50.988;10.318;2023-02-16T13:32:50;99739.25;;;5.26;77.63
28181;BME280;15464;50.988;10.318;2023-02-16T13:41:33;99738.31;;;5.44;78.44
28181;BME280;15464;50.988;10.318;2023-02-16T13:44:13;99747.88;;;5.62;76.09
28181;BME280;15464;50.988;10.318;2023-02-16T13:46:51;99751.88;;;5.69;76.10
28181;BME280;15464;50.988;10.318;2023-02-16T13:51:55;99742.66;;;5.78;74.92
28181;BME280;15464;50.988;10.318;2023-02-16T13:54:28;99747.69;;;5.33;75.77
28181;BME280;15464;50.988;10.318;2023-02-16T13:56:56;99746.34;;;5.58;76.76
28181;BME280;15464;50.988;10.318;2023-02-16T14:01:50;99747.50;;;6.03;74.95
28181;BME280;15464;50.988;10.318;2023-02-16T14:17:24;99726.03;;;6.26;72.72
28181;BME280;15464;50.988;10.318;2023-02-16T14:23:19;99703.19;;;6.42;72.88
28181;BME280;15464;50.988;10.318;2023-02-16T14:27:49;99701.44;;;6.73;73.10
28181;BME280;15464;50.988;10.318;2023-02-16T14:38:35;99695.13;;;7.19;72.25
28181;BME280;15464;50.988;10.318;2023-02-16T14:41:11;99711.16;;;7.16;71.68
28181;BME280;15464;50.988;10.318;2023-02-16T14:43:46;99710.44;;;6.69;70.08
28181;BME280;15464;50.988;10.318;2023-02-16T14:46:27;99709.81;;;6.50;73.23
28181;BME280;15464;50.988;10.318;2023-02-16T14:57:43;99705.63;;;6.45;73.55
28181;BME280;15464;50.988;10.318;2023-02-16T15:03:20;99711.50;;;6.03;74.87
28181;BME280;15464;50.988;10.318;2023-02-16T15:05:57;99703.06;;;6.13;74.45
28181;BME280;15464;50.988;10.318;2023-02-16T15:08:29;99696.69;;;6.32;74.34
28181;BME280;15464;50.988;10.318;2023-02-16T15:11:15;99692.97;;;6.36;74.11
28181;BME280;15464;50.988;10.318;2023-02-16T15:13:46;99699.56;;;5.63;74.54
28181;BME280;15464;50.988;10.318;2023-02-16T15:16:17;99706.19;;;5.88;75.61
28181;BME280;15464;50.988;10.318;2023-02-16T15:18:48;99699.69;;;5.78;75.87
28181;BME280;15464;50.988;10.318;2023-02-16T15:21:20;99693.19;;;5.52;76.55
28181;BME280;15464;50.988;10.318;2023-02-16T15:23:49;99698.63;;;5.49;76.45
28181;BME280;15464;50.988;10.318;2023-02-16T15:26:20;99686.28;;;5.82;76.59
28181;BME280;15464;50.988;10.318;2023-02-16T15:29:02;99683.91;;;5.62;74.91
28181;BME280;15464;50.988;10.318;2023-02-16T15:31:33;99687.66;;;5.74;76.58
28181;BME280;15464;50.988;10.318;2023-02-16T15:34:10;99682.91;;;5.47;76.94
28181;BME280;15464;50.988;10.318;2023-02-16T15:36:43;99677.44;;;5.67;77.39
28181;BME280;15464;50.988;10.318;2023-02-16T15:39:23;99674.56;;;5.72;76.96
28181;BME280;15464;50.988;10.318;2023-02-16T15:42:26;99678.59;;;5.46;77.47
28181;BME280;15464;50.988;10.318;2023-02-16T15:44:55;99659.91;;;5.51;77.69
28181;BME280;15464;50.988;10.318;2023-02-16T15:47:24;99654.75;;;5.49;77.24
28181;BME280;15464;50.988;10.318;2023-02-16T15:49:52;99662.66;;;5.49;77.78